sensor_id;sensor_type;location;lat;lon;timestamp;P1;durP1;ratioP1;P2;durP2;ratioP2
19384;SDS011;9828;54.122;17.974;2023-07-13T00:01:55;2.60;;;2.10;;
19384;SDS011;9828;54.122;17.974;2023-07-13T00:07:16;3.17;;;2.13;;
19384;SDS011;9828;54.122;17.974;2023-07-13T00:12:40;3.33;;;2.13;;
19384;SDS011;9828;54.122;17.974;2023-07-13T00:18:03;4.15;;;2.30;;
19384;SDS011;9828;54.122;17.974;2023-07-13T00:23:24;3.53;;;2.20;;
19384;SDS011;9828;54.122;17.974;2023-07-13T00:28:46;4.45;;;2.60;;
19384;SDS011;9828;54.122;17.974;2023-07-13T00:34:07;3.63;;;2.80;;
19384;SDS011;9828;54.122;17.974;2023-07-13T00:39:29;2.33;;;2.13;;
19384;SDS011;9828;54.122;17.974;2023-07-13T00:56:32;7.30;;;2.92;;
19384;SDS011;9828;54.122;17.974;2023-07-13T01:01:54;3.88;;;2.38;;
19384;SDS011;9828;54.122;17.974;2023-07-13T01:07:15;5.50;;;2.65;;
19384;SDS011;9828;54.122;17.974;2023-07-13T01:12:36;7.53;;;3.20;;
19384;SDS011;9828;54.122;17.974;2023-07-13T01:17:58;3.83;;;2.20;;
19384;SDS011;9828;54.122;17.974;2023-07-13T01:23:19;4.18;;;2.40;;
19384;SDS011;9828;54.122;17.974;2023-07-13T01:28:41;5.57;;;3.47;;
19384;SDS011;9828;54.122;17.974;2023-07-13T01:34:02;4.55;;;2.70;;
19384;SDS011;9828;54.122;17.974;2023-07-13T01:39:23;3.08;;;2.30;;
19384;SDS011;9828;54.122;17.974;2023-07-13T01:44:45;3.47;;;2.63;;
19384;SDS011;9828;54.122;17.974;2023-07-13T01:50:06;5.88;;;3.03;;
19384;SDS011;9828;54.122;17.974;2023-07-13T01:55:29;4.38;;;2.75;;
19384;SDS011;9828;54.122;17.974;2023-07-13T02:00:51;5.90;;;2.92;;
19384;SDS011;9828;54.122;17.974;2023-07-13T02:06:13;2.92;;;1.98;;
19384;SDS011;9828;54.122;17.974;2023-07-13T02:11:35;5.93;;;2.40;;
19384;SDS011;9828;54.122;17.974;2023-07-13T02:16:56;3.60;;;2.70;;
19384;SDS011;9828;54.122;17.974;2023-07-13T02:22:18;5.70;;;2.55;;
19384;SDS011;9828;54.122;17.974;2023-07-13T02:27:39;4.65;;;2.60;;
19384;SDS011;9828;54.122;17.974;2023-07-13T02:33:02;4.50;;;2.58;;
19384;SDS011;9828;54.122;17.974;2023-07-13T02:38:23;4.07;;;2.50;;
19384;SDS011;9828;54.122;17.974;2023-07-13T02:43:44;5.70;;;2.55;;
19384;SDS011;9828;54.122;17.974;2023-07-13T02:49:06;3.15;;;2.40;;
19384;SDS011;9828;54.122;17.974;2023-07-13T02:54:28;3.33;;;2.75;;
19384;SDS011;9828;54.122;17.974;2023-07-13T02:59:49;2.72;;;2.10;;
19384;SDS011;9828;54.122;17.974;2023-07-13T03:05:10;7.03;;;2.40;;
19384;SDS011;9828;54.122;17.974;2023-07-13T03:10:35;4.03;;;2.20;;
19384;SDS011;9828;54.122;17.974;2023-07-13T03:15:57;4.43;;;2.22;;
19384;SDS011;9828;54.122;17.974;2023-07-13T03:21:19;6.55;;;2.35;;
19384;SDS011;9828;54.122;17.974;2023-07-13T03:26:41;4.97;;;2.65;;
19384;SDS011;9828;54.122;17.974;2023-07-13T03:32:03;3.67;;;2.38;;
19384;SDS011;9828;54.122;17.974;2023-07-13T03:37:26;4.85;;;2.30;;
19384;SDS011;9828;54.122;17.974;2023-07-13T03:42:47;4.57;;;2.20;;
19384;SDS011;9828;54.122;17.974;2023-07-13T03:48:11;5.00;;;2.28;;
19384;SDS011;9828;54.122;17.974;2023-07-13T03:53:32;3.83;;;2.25;;
19384;SDS011;9828;54.122;17.974;2023-07-13T03:58:54;8.65;;;3.00;;
19384;SDS011;9828;54.122;17.974;2023-07-13T04:04:16;6.35;;;2.40;;
19384;SDS011;9828;54.122;17.974;2023-07-13T04:09:38;4.88;;;2.28;;
19384;SDS011;9828;54.122;17.974;2023-07-13T04:14:59;3.28;;;2.22;;
19384;SDS011;9828;54.122;17.974;2023-07-13T04:20:20;5.40;;;2.38;;
19384;SDS011;9828;54.122;17.974;2023-07-13T04:25:46;8.18;;;3.03;;
19384;SDS011;9828;54.122;17.974;2023-07-13T04:31:09;6.28;;;2.67;;
19384;SDS011;9828;54.122;17.974;2023-07-13T04:36:31;5.63;;;2.55;;
19384;SDS011;9828;54.122;17.974;2023-07-13T04:41:52;6.82;;;2.83;;
19384;SDS011;9828;54.122;17.974;2023-07-13T04:47:14;6.18;;;2.60;;
19384;SDS011;9828;54.122;17.974;2023-07-13T04:52:35;4.43;;;2.17;;
19384;SDS011;9828;54.122;17.974;2023-07-13T04:57:57;5.82;;;2.20;;
19384;SDS011;9828;54.122;17.974;2023-07-13T05:03:21;6.35;;;2.17;;
19384;SDS011;9828;54.122;17.974;2023-07-13T05:08:42;4.93;;;2.20;;
19384;SDS011;9828;54.122;17.974;2023-07-13T05:14:03;7.95;;;2.28;;
19384;SDS011;9828;54.122;17.974;2023-07-13T05:19:26;10.70;;;2.97;;
19384;SDS011;9828;54.122;17.974;2023-07-13T05:24:48;4.88;;;1.98;;
19384;SDS011;9828;54.122;17.974;2023-07-13T05:30:11;7.53;;;2.80;;
19384;SDS011;9828;54.122;17.974;2023-07-13T05:35:33;8.25;;;2.42;;
19384;SDS011;9828;54.122;17.974;2023-07-13T05:40:58;7.68;;;2.45;;
19384;SDS011;9828;54.122;17.974;2023-07-13T05:46:21;5.15;;;2.10;;
19384;SDS011;9828;54.122;17.974;2023-07-13T05:51:42;4.28;;;1.67;;
19384;SDS011;9828;54.122;17.974;2023-07-13T05:57:04;5.00;;;1.85;;
19384;SDS011;9828;54.122;17.974;2023-07-13T06:02:25;6.70;;;2.05;;
19384;SDS011;9828;54.122;17.974;2023-07-13T06:07:47;6.93;;;1.83;;
19384;SDS011;9828;54.122;17.974;2023-07-13T06:13:08;5.10;;;1.90;;
19384;SDS011;9828;54.122;17.974;2023-07-13T06:18:30;8.15;;;2.20;;
19384;SDS011;9828;54.122;17.974;2023-07-13T06:23:52;9.75;;;1.88;;
19384;SDS011;9828;54.122;17.974;2023-07-13T06:29:13;3.83;;;2.13;;
19384;SDS011;9828;54.122;17.974;2023-07-13T06:34:35;8.30;;;2.05;;
19384;SDS011;9828;54.122;17.974;2023-07-13T06:39:56;4.75;;;1.73;;
19384;SDS011;9828;54.122;17.974;2023-07-13T06:45:18;3.08;;;1.42;;
19384;SDS011;9828;54.122;17.974;2023-07-13T06:50:39;6.15;;;2.15;;
19384;SDS011;9828;54.122;17.974;2023-07-13T06:56:01;5.82;;;2.17;;
19384;SDS011;9828;54.122;17.974;2023-07-13T07:01:23;3.72;;;1.55;;
19384;SDS011;9828;54.122;17.974;2023-07-13T07:06:45;4.95;;;1.70;;
19384;SDS011;9828;54.122;17.974;2023-07-13T07:12:06;2.85;;;1.52;;
19384;SDS011;9828;54.122;17.974;2023-07-13T07:17:28;5.68;;;1.65;;
19384;SDS011;9828;54.122;17.974;2023-07-13T07:22:50;4.30;;;1.80;;
19384;SDS011;9828;54.122;17.974;2023-07-13T07:28:12;5.50;;;1.65;;
19384;SDS011;9828;54.122;17.974;2023-07-13T07:33:55;7.35;;;1.75;;
19384;SDS011;9828;54.122;17.974;2023-07-13T07:39:16;5.22;;;1.48;;
19384;SDS011;9828;54.122;17.974;2023-07-13T07:44:38;4.72;;;1.65;;
19384;SDS011;9828;54.122;17.974;2023-07-13T07:50:00;2.50;;;1.50;;
19384;SDS011;9828;54.122;17.974;2023-07-13T07:55:24;5.75;;;2.03;;
19384;SDS011;9828;54.122;17.974;2023-07-13T08:00:52;3.63;;;1.20;;
19384;SDS011;9828;54.122;17.974;2023-07-13T08:06:16;3.55;;;1.38;;
19384;SDS011;9828;54.122;17.974;2023-07-13T08:11:43;5.13;;;1.60;;
19384;SDS011;9828;54.122;17.974;2023-07-13T08:17:07;9.80;;;1.60;;
19384;SDS011;9828;54.122;17.974;2023-07-13T08:22:28;2.35;;;1.27;;
19384;SDS011;9828;54.122;17.974;2023-07-13T08:27:50;4.15;;;1.20;;
19384;SDS011;9828;54.122;17.974;2023-07-13T08:33:12;2.58;;;1.25;;
19384;SDS011;9828;54.122;17.974;2023-07-13T08:38:34;3.55;;;1.27;;
19384;SDS011;9828;54.122;17.974;2023-07-13T08:43:56;3.00;;;1.10;;
19384;SDS011;9828;54.122;17.974;2023-07-13T08:49:21;2.05;;;1.40;;
19384;SDS011;9828;54.122;17.974;2023-07-13T08:54:44;4.30;;;2.13;;
19384;SDS011;9828;54.122;17.974;2023-07-13T09:00:10;3.67;;;2.00;;
19384;SDS011;9828;54.122;17.974;2023-07-13T09:05:38;3.20;;;1.50;;
19384;SDS011;9828;54.122;17.974;2023-07-13T09:16:27;2.50;;;1.27;;
19384;SDS011;9828;54.122;17.974;2023-07-13T09:21:48;2.17;;;1.30;;
19384;SDS011;9828;54.122;17.974;2023-07-13T09:27:13;4.93;;;1.55;;
19384;SDS011;9828;54.122;17.974;2023-07-13T09:32:38;3.00;;;1.48;;
19384;SDS011;9828;54.122;17.974;2023-07-13T09:38:14;3.60;;;1.20;;
19384;SDS011;9828;54.122;17.974;2023-07-13T09:43:37;4.65;;;1.63;;
19384;SDS011;9828;54.122;17.974;2023-07-13T09:48:58;2.83;;;1.27;;
19384;SDS011;9828;54.122;17.974;2023-07-13T09:54:20;3.20;;;1.30;;
19384;SDS011;9828;54.122;17.974;2023-07-13T09:59:46;1.33;;;1.05;;
19384;SDS011;9828;54.122;17.974;2023-07-13T10:05:14;2.17;;;1.30;;
19384;SDS011;9828;54.122;17.974;2023-07-13T10:10:38;4.13;;;1.63;;
19384;SDS011;9828;54.122;17.974;2023-07-13T10:16:00;5.45;;;2.20;;
19384;SDS011;9828;54.122;17.974;2023-07-13T10:21:22;2.63;;;1.27;;
19384;SDS011;9828;54.122;17.974;2023-07-13T10:32:32;4.20;;;1.25;;
19384;SDS011;9828;54.122;17.974;2023-07-13T10:37:55;2.17;;;1.25;;
19384;SDS011;9828;54.122;17.974;2023-07-13T10:43:37;2.40;;;1.38;;
19384;SDS011;9828;54.122;17.974;2023-07-13T10:49:01;2.75;;;1.30;;
19384;SDS011;9828;54.122;17.974;2023-07-13T10:54:27;1.98;;;1.33;;
19384;SDS011;9828;54.122;17.974;2023-07-13T10:59:49;2.83;;;1.20;;
19384;SDS011;9828;54.122;17.974;2023-07-13T11:05:37;2.92;;;1.27;;
19384;SDS011;9828;54.122;17.974;2023-07-13T11:11:01;2.58;;;1.10;;
19384;SDS011;9828;54.122;17.974;2023-07-13T11:27:36;4.43;;;1.65;;
19384;SDS011;9828;54.122;17.974;2023-07-13T11:33:04;10.25;;;5.90;;
19384;SDS011;9828;54.122;17.974;2023-07-13T11:44:24;3.47;;;1.63;;
19384;SDS011;9828;54.122;17.974;2023-07-13T11:49:51;2.60;;;1.17;;
19384;SDS011;9828;54.122;17.974;2023-07-13T11:55:17;4.28;;;1.75;;
19384;SDS011;9828;54.122;17.974;2023-07-13T12:00:40;2.88;;;1.20;;
19384;SDS011;9828;54.122;17.974;2023-07-13T12:06:04;3.08;;;1.80;;
19384;SDS011;9828;54.122;17.974;2023-07-13T12:11:27;3.42;;;1.55;;
19384;SDS011;9828;54.122;17.974;2023-07-13T12:16:49;2.22;;;1.17;;
19384;SDS011;9828;54.122;17.974;2023-07-13T12:22:11;1.17;;;0.90;;
19384;SDS011;9828;54.122;17.974;2023-07-13T12:27:33;5.30;;;1.13;;
19384;SDS011;9828;54.122;17.974;2023-07-13T12:33:02;1.92;;;0.93;;
19384;SDS011;9828;54.122;17.974;2023-07-13T12:38:31;3.15;;;1.35;;
19384;SDS011;9828;54.122;17.974;2023-07-13T12:43:53;1.65;;;1.00;;
19384;SDS011;9828;54.122;17.974;2023-07-13T12:49:14;2.03;;;1.08;;
19384;SDS011;9828;54.122;17.974;2023-07-13T12:54:38;2.53;;;1.00;;
19384;SDS011;9828;54.122;17.974;2023-07-13T13:00:03;4.82;;;1.33;;
19384;SDS011;9828;54.122;17.974;2023-07-13T13:05:25;1.90;;;1.00;;
19384;SDS011;9828;54.122;17.974;2023-07-13T13:10:47;1.23;;;0.82;;
19384;SDS011;9828;54.122;17.974;2023-07-13T13:21:33;1.85;;;1.20;;
19384;SDS011;9828;54.122;17.974;2023-07-13T13:26:54;1.90;;;0.98;;
19384;SDS011;9828;54.122;17.974;2023-07-13T13:32:18;2.25;;;1.00;;
19384;SDS011;9828;54.122;17.974;2023-07-13T13:37:40;3.38;;;1.60;;
19384;SDS011;9828;54.122;17.974;2023-07-13T13:43:01;3.05;;;1.48;;
19384;SDS011;9828;54.122;17.974;2023-07-13T13:48:41;1.88;;;0.90;;
19384;SDS011;9828;54.122;17.974;2023-07-13T13:54:02;4.00;;;1.23;;
19384;SDS011;9828;54.122;17.974;2023-07-13T13:59:25;1.52;;;1.00;;
19384;SDS011;9828;54.122;17.974;2023-07-13T14:04:55;1.85;;;0.95;;
19384;SDS011;9828;54.122;17.974;2023-07-13T14:10:19;1.85;;;1.00;;
19384;SDS011;9828;54.122;17.974;2023-07-13T14:21:33;3.00;;;1.00;;
19384;SDS011;9828;54.122;17.974;2023-07-13T14:26:55;2.78;;;1.10;;
19384;SDS011;9828;54.122;17.974;2023-07-13T14:32:16;1.80;;;1.40;;
19384;SDS011;9828;54.122;17.974;2023-07-13T14:37:38;1.52;;;1.42;;
19384;SDS011;9828;54.122;17.974;2023-07-13T14:43:01;3.53;;;1.67;;
19384;SDS011;9828;54.122;17.974;2023-07-13T14:48:23;2.63;;;1.10;;
19384;SDS011;9828;54.122;17.974;2023-07-13T14:53:45;3.33;;;1.15;;
19384;SDS011;9828;54.122;17.974;2023-07-13T14:59:07;3.30;;;1.30;;
19384;SDS011;9828;54.122;17.974;2023-07-13T15:04:29;2.35;;;0.90;;
19384;SDS011;9828;54.122;17.974;2023-07-13T15:09:51;1.08;;;0.93;;
19384;SDS011;9828;54.122;17.974;2023-07-13T15:15:13;1.77;;;0.93;;
19384;SDS011;9828;54.122;17.974;2023-07-13T15:20:34;2.53;;;1.20;;
19384;SDS011;9828;54.122;17.974;2023-07-13T15:25:56;2.55;;;1.30;;
19384;SDS011;9828;54.122;17.974;2023-07-13T15:31:21;2.60;;;0.82;;
19384;SDS011;9828;54.122;17.974;2023-07-13T15:36:44;1.60;;;1.08;;
19384;SDS011;9828;54.122;17.974;2023-07-13T15:42:07;3.58;;;1.35;;
19384;SDS011;9828;54.122;17.974;2023-07-13T15:47:35;1.50;;;1.13;;
19384;SDS011;9828;54.122;17.974;2023-07-13T15:52:58;1.15;;;0.98;;
19384;SDS011;9828;54.122;17.974;2023-07-13T15:58:19;1.20;;;1.00;;
19384;SDS011;9828;54.122;17.974;2023-07-13T16:03:41;2.05;;;1.08;;
19384;SDS011;9828;54.122;17.974;2023-07-13T16:09:03;2.17;;;0.93;;
19384;SDS011;9828;54.122;17.974;2023-07-13T16:14:25;4.13;;;1.00;;
19384;SDS011;9828;54.122;17.974;2023-07-13T16:19:47;3.45;;;1.27;;
19384;SDS011;9828;54.122;17.974;2023-07-13T16:25:18;1.13;;;0.90;;
19384;SDS011;9828;54.122;17.974;2023-07-13T16:30:42;2.53;;;0.90;;
19384;SDS011;9828;54.122;17.974;2023-07-13T16:36:04;5.95;;;1.40;;
19384;SDS011;9828;54.122;17.974;2023-07-13T16:41:31;1.10;;;0.93;;
19384;SDS011;9828;54.122;17.974;2023-07-13T16:46:53;3.33;;;1.17;;
19384;SDS011;9828;54.122;17.974;2023-07-13T16:52:17;1.13;;;0.90;;
19384;SDS011;9828;54.122;17.974;2023-07-13T16:57:43;2.67;;;1.00;;
19384;SDS011;9828;54.122;17.974;2023-07-13T17:03:06;1.83;;;1.00;;
19384;SDS011;9828;54.122;17.974;2023-07-13T17:08:29;3.95;;;1.38;;
19384;SDS011;9828;54.122;17.974;2023-07-13T17:13:52;2.22;;;0.98;;
19384;SDS011;9828;54.122;17.974;2023-07-13T17:19:13;2.35;;;1.20;;
19384;SDS011;9828;54.122;17.974;2023-07-13T17:24:36;3.25;;;1.77;;
19384;SDS011;9828;54.122;17.974;2023-07-13T17:29:58;1.65;;;1.30;;
19384;SDS011;9828;54.122;17.974;2023-07-13T17:35:23;1.88;;;1.33;;
19384;SDS011;9828;54.122;17.974;2023-07-13T17:40:45;5.97;;;1.50;;
19384;SDS011;9828;54.122;17.974;2023-07-13T17:46:26;3.78;;;2.35;;
19384;SDS011;9828;54.122;17.974;2023-07-13T17:51:49;4.07;;;1.90;;
19384;SDS011;9828;54.122;17.974;2023-07-13T17:57:11;3.90;;;2.53;;
19384;SDS011;9828;54.122;17.974;2023-07-13T18:02:32;3.50;;;2.03;;
19384;SDS011;9828;54.122;17.974;2023-07-13T18:07:54;3.40;;;1.80;;
19384;SDS011;9828;54.122;17.974;2023-07-13T18:13:16;4.95;;;1.85;;
19384;SDS011;9828;54.122;17.974;2023-07-13T18:18:38;4.90;;;2.33;;
19384;SDS011;9828;54.122;17.974;2023-07-13T18:24:00;4.03;;;2.53;;
19384;SDS011;9828;54.122;17.974;2023-07-13T18:29:25;4.35;;;2.13;;
19384;SDS011;9828;54.122;17.974;2023-07-13T18:34:47;2.55;;;1.83;;
19384;SDS011;9828;54.122;17.974;2023-07-13T18:40:12;3.38;;;1.25;;
19384;SDS011;9828;54.122;17.974;2023-07-13T18:45:39;3.92;;;1.58;;
19384;SDS011;9828;54.122;17.974;2023-07-13T18:51:01;4.75;;;2.17;;
19384;SDS011;9828;54.122;17.974;2023-07-13T18:56:24;2.88;;;1.55;;
19384;SDS011;9828;54.122;17.974;2023-07-13T19:01:45;4.70;;;2.42;;
19384;SDS011;9828;54.122;17.974;2023-07-13T19:07:09;4.43;;;2.38;;
19384;SDS011;9828;54.122;17.974;2023-07-13T19:12:31;2.70;;;2.08;;
19384;SDS011;9828;54.122;17.974;2023-07-13T19:17:53;2.67;;;1.83;;
19384;SDS011;9828;54.122;17.974;2023-07-13T19:23:57;3.35;;;2.13;;
19384;SDS011;9828;54.122;17.974;2023-07-13T19:29:02;5.03;;;1.73;;
19384;SDS011;9828;54.122;17.974;2023-07-13T19:34:25;3.05;;;1.50;;
19384;SDS011;9828;54.122;17.974;2023-07-13T19:39:47;4.75;;;1.63;;
19384;SDS011;9828;54.122;17.974;2023-07-13T19:45:16;3.70;;;1.58;;
19384;SDS011;9828;54.122;17.974;2023-07-13T19:50:39;3.80;;;1.70;;
19384;SDS011;9828;54.122;17.974;2023-07-13T19:56:03;3.15;;;1.48;;
19384;SDS011;9828;54.122;17.974;2023-07-13T20:01:25;7.35;;;1.52;;
19384;SDS011;9828;54.122;17.974;2023-07-13T20:06:47;5.03;;;2.22;;
19384;SDS011;9828;54.122;17.974;2023-07-13T20:12:10;3.53;;;2.30;;
19384;SDS011;9828;54.122;17.974;2023-07-13T20:17:34;4.45;;;2.40;;
19384;SDS011;9828;54.122;17.974;2023-07-13T20:23:01;2.92;;;2.08;;
19384;SDS011;9828;54.122;17.974;2023-07-13T20:28:22;3.05;;;2.22;;
19384;SDS011;9828;54.122;17.974;2023-07-13T20:33:44;4.43;;;2.45;;
19384;SDS011;9828;54.122;17.974;2023-07-13T20:39:07;3.78;;;2.50;;
19384;SDS011;9828;54.122;17.974;2023-07-13T20:44:30;3.38;;;2.65;;
19384;SDS011;9828;54.122;17.974;2023-07-13T20:49:51;6.53;;;3.40;;
19384;SDS011;9828;54.122;17.974;2023-07-13T20:55:18;6.40;;;4.38;;
19384;SDS011;9828;54.122;17.974;2023-07-13T21:00:40;6.38;;;3.78;;
19384;SDS011;9828;54.122;17.974;2023-07-13T21:06:07;4.93;;;3.50;;
19384;SDS011;9828;54.122;17.974;2023-07-13T21:11:36;5.00;;;3.72;;
19384;SDS011;9828;54.122;17.974;2023-07-13T21:16:58;7.00;;;4.07;;
19384;SDS011;9828;54.122;17.974;2023-07-13T21:22:21;6.05;;;3.63;;
19384;SDS011;9828;54.122;17.974;2023-07-13T21:27:43;6.03;;;4.05;;
19384;SDS011;9828;54.122;17.974;2023-07-13T21:33:05;6.07;;;4.38;;
19384;SDS011;9828;54.122;17.974;2023-07-13T21:38:35;6.97;;;4.20;;
19384;SDS011;9828;54.122;17.974;2023-07-13T21:43:58;4.72;;;3.28;;
19384;SDS011;9828;54.122;17.974;2023-07-13T21:49:22;6.72;;;2.88;;
19384;SDS011;9828;54.122;17.974;2023-07-13T21:54:44;5.00;;;2.53;;
19384;SDS011;9828;54.122;17.974;2023-07-13T22:00:14;5.30;;;3.42;;
19384;SDS011;9828;54.122;17.974;2023-07-13T22:05:46;5.15;;;2.47;;
19384;SDS011;9828;54.122;17.974;2023-07-13T22:11:09;4.90;;;2.50;;
19384;SDS011;9828;54.122;17.974;2023-07-13T22:16:34;3.15;;;2.05;;
19384;SDS011;9828;54.122;17.974;2023-07-13T22:21:56;4.03;;;1.75;;
19384;SDS011;9828;54.122;17.974;2023-07-13T22:27:18;2.60;;;1.92;;
19384;SDS011;9828;54.122;17.974;2023-07-13T22:32:40;3.78;;;2.03;;
19384;SDS011;9828;54.122;17.974;2023-07-13T22:38:07;2.25;;;1.70;;
19384;SDS011;9828;54.122;17.974;2023-07-13T22:43:34;3.58;;;1.73;;
19384;SDS011;9828;54.122;17.974;2023-07-13T22:48:58;3.78;;;1.98;;
19384;SDS011;9828;54.122;17.974;2023-07-13T22:54:25;2.38;;;1.80;;
19384;SDS011;9828;54.122;17.974;2023-07-13T22:59:48;2.95;;;2.13;;
19384;SDS011;9828;54.122;17.974;2023-07-13T23:05:13;3.50;;;2.03;;
19384;SDS011;9828;54.122;17.974;2023-07-13T23:10:36;3.13;;;1.60;;
19384;SDS011;9828;54.122;17.974;2023-07-13T23:15:58;2.42;;;1.73;;
19384;SDS011;9828;54.122;17.974;2023-07-13T23:21:20;2.22;;;1.50;;
19384;SDS011;9828;54.122;17.974;2023-07-13T23:26:42;2.88;;;1.63;;
19384;SDS011;9828;54.122;17.974;2023-07-13T23:32:04;2.67;;;1.77;;
19384;SDS011;9828;54.122;17.974;2023-07-13T23:37:26;2.45;;;1.63;;
19384;SDS011;9828;54.122;17.974;2023-07-13T23:42:48;1.70;;;1.50;;
19384;SDS011;9828;54.122;17.974;2023-07-13T23:48:11;1.77;;;1.58;;
19384;SDS011;9828;54.122;17.974;2023-07-13T23:53:33;6.15;;;1.75;;
19384;SDS011;9828;54.122;17.974;2023-07-13T23:58:54;2.08;;;1.38;;
